Time;durP1;ratioP1;P1;durP2;ratioP2;P2;SDS_P1;SDS_P2;PMS_P1;PMS_P2;Temp;Humidity;BMP_temperature;BMP_pressure;BME280_temperature;BME280_humidity;BME280_pressure;Samples;Min_cycle;Max_cycle;Signal;HPM_P1;HPM_P2
2023/05/13 00:02:07;;;;;;;10.17;7.50;;;12.20;99.90;;;;;;5071342;28;20230;-87
2023/05/13 00:04:34;;;;;;;11.60;7.03;;;12.20;99.90;;;;;;5080814;28;20224;-86
2023/05/13 00:07:00;;;;;;;10.67;6.97;;;12.20;99.90;;;;;;5094212;28;20292;-86
2023/05/13 00:09:27;;;;;;;9.63;7.07;;;12.10;99.90;;;;;;5073773;28;20608;-86
2023/05/13 00:11:54;;;;;;;10.07;6.87;;;12.10;99.90;;;;;;5064946;28;20222;-87
2023/05/13 00:14:22;;;;;;;9.07;6.63;;;12.10;99.90;;;;;;5077556;28;20198;-86
2023/05/13 00:16:49;;;;;;;12.93;7.53;;;12.00;99.90;;;;;;5075578;28;20229;-87
2023/05/13 00:19:16;;;;;;;9.60;7.00;;;12.00;99.90;;;;;;5076973;28;20206;-86
2023/05/13 00:21:42;;;;;;;12.13;7.53;;;12.00;99.90;;;;;;5069212;28;20595;-85
2023/05/13 00:24:10;;;;;;;10.00;7.70;;;11.90;99.90;;;;;;5079646;28;20237;-86
2023/05/13 00:26:36;;;;;;;12.77;7.80;;;11.80;99.90;;;;;;5080614;28;20665;-87
2023/05/13 00:29:03;;;;;;;8.97;6.87;;;11.90;99.90;;;;;;5088444;28;20229;-86
2023/05/13 00:31:31;;;;;;;10.50;6.57;;;11.80;99.90;;;;;;5096591;28;20622;-87
2023/05/13 00:33:58;;;;;;;11.40;6.20;;;11.50;99.90;;;;;;5085743;28;20202;-87
2023/05/13 00:36:26;;;;;;;7.83;6.13;;;11.10;99.90;;;;;;5076582;28;20218;-87
2023/05/13 00:38:53;;;;;;;8.13;6.30;;;10.90;99.90;;;;;;5075516;28;20205;-86
2023/05/13 00:41:20;;;;;;;8.47;6.60;;;11.20;99.90;;;;;;5068857;28;20261;-86
2023/05/13 00:43:47;;;;;;;9.60;7.23;;;11.30;99.90;;;;;;5073888;28;20209;-86
2023/05/13 00:46:15;;;;;;;9.67;6.77;;;11.30;99.90;;;;;;5059904;28;20190;-86
2023/05/13 00:48:43;;;;;;;11.97;7.67;;;11.30;99.90;;;;;;5074997;28;20208;-86
2023/05/13 00:51:10;;;;;;;10.10;6.97;;;11.30;99.90;;;;;;5080250;28;20221;-87
2023/05/13 00:53:39;;;;;;;10.53;7.40;;;11.30;99.90;;;;;;5063730;28;20688;-86
2023/05/13 00:56:07;;;;;;;9.43;7.47;;;11.30;99.90;;;;;;5067858;28;20617;-86
2023/05/13 00:58:34;;;;;;;9.90;6.93;;;11.30;99.90;;;;;;5075560;28;20198;-87
2023/05/13 01:01:08;;;;;;;9.83;7.47;;;11.10;99.90;;;;;;5075475;28;20221;-86
2023/05/13 01:03:44;;;;;;;8.93;7.33;;;11.10;99.90;;;;;;5075564;28;20190;-86
2023/05/13 01:06:18;;;;;;;12.03;7.47;;;11.10;99.90;;;;;;5075475;28;20198;-87
2023/05/13 01:08:55;;;;;;;9.17;7.43;;;11.10;99.90;;;;;;5075023;28;20648;-87
2023/05/13 01:11:27;;;;;;;10.00;7.23;;;11.10;99.90;;;;;;5075101;28;20245;-87
2023/05/13 01:14:01;;;;;;;9.83;7.50;;;11.00;99.90;;;;;;5074875;28;20199;-87
2023/05/13 01:16:32;;;;;;;13.53;7.57;;;11.00;99.90;;;;;;5075070;28;20222;-87
2023/05/13 01:19:12;;;;;;;10.43;7.13;;;11.00;99.90;;;;;;5073846;28;20202;-87
2023/05/13 01:21:41;;;;;;;9.60;7.47;;;11.20;99.90;;;;;;5074465;28;20222;-87
2023/05/13 01:24:08;;;;;;;12.27;7.63;;;11.20;99.90;;;;;;5074673;28;20208;-87
2023/05/13 01:26:35;;;;;;;10.80;7.43;;;11.00;99.90;;;;;;5074340;28;20210;-87
2023/05/13 01:29:01;;;;;;;10.17;7.27;;;10.90;99.90;;;;;;5062179;28;20577;-87
2023/05/13 01:31:29;;;;;;;10.17;7.07;;;10.80;99.90;;;;;;5054327;28;20223;-86
2023/05/13 01:33:57;;;;;;;9.77;7.20;;;10.80;99.90;;;;;;5086589;28;20208;-87
2023/05/13 01:36:24;;;;;;;10.47;7.43;;;10.80;99.90;;;;;;5094874;28;20236;-86
2023/05/13 01:38:53;;;;;;;9.33;6.93;;;10.70;99.90;;;;;;5092360;28;20236;-86
2023/05/13 01:41:20;;;;;;;10.17;7.00;;;10.80;99.90;;;;;;5073542;28;20280;-85
2023/05/13 01:43:47;;;;;;;10.17;8.17;;;10.90;99.90;;;;;;5073828;28;20702;-86
2023/05/13 01:46:14;;;;;;;9.60;6.97;;;10.80;99.90;;;;;;5073461;28;20209;-87
2023/05/13 01:48:41;;;;;;;9.50;6.93;;;10.70;99.90;;;;;;5074222;28;20213;-86
2023/05/13 01:51:09;;;;;;;10.73;6.93;;;10.60;99.90;;;;;;5073725;28;20218;-86
2023/05/13 01:53:36;;;;;;;11.47;6.90;;;10.60;99.90;;;;;;5073636;28;20205;-86
2023/05/13 01:56:04;;;;;;;9.73;6.83;;;10.60;99.90;;;;;;5074033;28;20579;-86
2023/05/13 01:58:31;;;;;;;9.70;5.77;;;10.50;99.90;;;;;;5073627;28;20214;-87
2023/05/13 02:00:58;;;;;;;9.97;7.07;;;10.50;99.90;;;;;;5073466;28;20233;-86
2023/05/13 02:03:26;;;;;;;9.13;6.40;;;10.20;99.90;;;;;;5074009;28;20197;-86
2023/05/13 02:05:53;;;;;;;9.53;7.20;;;9.90;99.90;;;;;;5073553;28;20206;-86
2023/05/13 02:08:22;;;;;;;10.23;7.00;;;9.80;99.90;;;;;;5073948;28;20190;-87
2023/05/13 02:10:55;;;;;;;9.87;6.83;;;10.00;99.90;;;;;;5073817;28;20279;-86
2023/05/13 02:13:23;;;;;;;8.87;6.90;;;10.10;99.90;;;;;;5088682;28;20194;-86
2023/05/13 02:15:50;;;;;;;8.93;6.80;;;10.00;99.90;;;;;;5094151;28;20201;-87
2023/05/13 02:18:17;;;;;;;8.23;6.83;;;9.90;99.90;;;;;;5094191;28;20221;-86
2023/05/13 02:20:44;;;;;;;11.13;7.63;;;9.90;99.90;;;;;;5083411;28;20229;-86
2023/05/13 02:23:11;;;;;;;11.00;7.73;;;10.20;99.90;;;;;;5073752;28;20194;-86
2023/05/13 02:25:38;;;;;;;8.43;6.80;;;10.20;99.90;;;;;;5073397;28;20230;-86
2023/05/13 02:28:05;;;;;;;11.27;7.47;;;10.10;99.90;;;;;;5073962;28;20225;-86
2023/05/13 02:30:33;;;;;;;9.37;7.20;;;10.10;99.90;;;;;;5073047;28;20253;-86
2023/05/13 02:33:01;;;;;;;11.63;7.33;;;10.10;99.90;;;;;;5073693;28;20202;-87
2023/05/13 02:35:28;;;;;;;8.13;6.20;;;10.10;99.90;;;;;;5073634;28;20220;-86
2023/05/13 02:37:55;;;;;;;11.00;7.20;;;10.00;99.90;;;;;;5073471;28;20630;-86
2023/05/13 02:40:22;;;;;;;9.07;6.60;;;9.90;99.90;;;;;;5073074;28;20250;-86
2023/05/13 02:42:51;;;;;;;8.47;7.17;;;9.90;99.90;;;;;;5073573;28;20212;-86
2023/05/13 02:45:19;;;;;;;10.83;7.63;;;9.90;99.90;;;;;;5073110;28;20205;-86
2023/05/13 02:47:47;;;;;;;9.93;7.20;;;10.00;99.90;;;;;;5073215;28;20210;-88
2023/05/13 02:50:13;;;;;;;11.20;7.83;;;10.00;99.90;;;;;;5078178;28;20218;-88
2023/05/13 02:52:40;;;;;;;9.93;7.50;;;10.10;99.90;;;;;;5066467;28;20208;-86
2023/05/13 02:55:08;;;;;;;10.27;7.17;;;10.10;99.90;;;;;;5077733;28;20371;-86
2023/05/13 02:57:36;;;;;;;8.83;6.80;;;10.10;99.90;;;;;;5077056;28;20214;-86
2023/05/13 03:00:04;;;;;;;10.10;7.23;;;10.00;99.90;;;;;;5073020;28;20669;-86
2023/05/13 03:02:30;;;;;;;10.70;7.20;;;9.90;99.90;;;;;;5072375;28;20202;-86
2023/05/13 03:04:59;;;;;;;11.47;7.50;;;9.90;99.90;;;;;;5072400;28;20225;-86
2023/05/13 03:07:25;;;;;;;10.67;7.30;;;9.90;99.90;;;;;;5072788;28;20217;-87
2023/05/13 03:09:52;;;;;;;10.43;7.57;;;10.00;99.90;;;;;;5080198;28;20608;-86
2023/05/13 03:12:19;;;;;;;11.43;7.47;;;9.90;99.90;;;;;;5078133;28;20691;-87
2023/05/13 03:14:46;;;;;;;11.77;8.07;;;9.90;99.90;;;;;;5081462;28;20256;-86
2023/05/13 03:17:13;;;;;;;10.43;7.80;;;9.90;99.90;;;;;;5071626;28;20596;-86
2023/05/13 03:19:40;;;;;;;19.40;13.07;;;10.00;99.90;;;;;;5072037;28;20202;-86
2023/05/13 03:22:08;;;;;;;10.80;7.90;;;10.00;99.90;;;;;;5068758;28;20591;-86
2023/05/13 03:24:35;;;;;;;12.03;8.17;;;10.00;99.90;;;;;;5053016;28;20210;-87
2023/05/13 03:27:02;;;;;;;9.67;7.83;;;10.00;99.90;;;;;;5061985;28;20600;-85
2023/05/13 03:29:28;;;;;;;8.67;7.30;;;10.10;99.90;;;;;;5070667;28;20213;-85
2023/05/13 03:31:55;;;;;;;9.83;7.43;;;10.00;99.90;;;;;;5073883;28;20225;-87
2023/05/13 03:34:22;;;;;;;10.93;7.37;;;10.10;99.90;;;;;;5070796;28;20241;-88
2023/05/13 03:36:49;;;;;;;9.70;6.70;;;10.00;99.90;;;;;;5074483;28;20232;-86
2023/05/13 03:39:17;;;;;;;8.43;7.20;;;10.10;99.90;;;;;;5087224;28;20202;-86
2023/05/13 03:41:44;;;;;;;9.20;7.07;;;9.90;99.90;;;;;;5091951;28;20286;-85
2023/05/13 03:44:11;;;;;;;8.40;6.50;;;9.90;99.90;;;;;;5081686;28;20251;-87
2023/05/13 03:46:38;;;;;;;12.63;8.00;;;9.90;99.90;;;;;;5074477;28;20222;-86
2023/05/13 03:49:05;;;;;;;12.13;8.23;;;9.80;99.90;;;;;;5064745;28;20209;-87
2023/05/13 03:51:33;;;;;;;11.37;7.57;;;9.60;99.90;;;;;;5062307;28;20764;-87
2023/05/13 03:53:59;;;;;;;11.83;8.50;;;10.00;99.90;;;;;;5068669;28;20203;-87
2023/05/13 03:56:28;;;;;;;10.50;7.53;;;10.20;99.90;;;;;;5065818;28;20205;-86
2023/05/13 03:58:55;;;;;;;10.57;7.97;;;10.70;99.90;;;;;;5069016;28;20226;-87
2023/05/13 04:01:22;;;;;;;12.63;8.20;;;10.80;99.90;;;;;;5070195;28;20598;-87
2023/05/13 04:03:51;;;;;;;21.97;15.17;;;11.30;99.90;;;;;;5064119;28;20209;-86
2023/05/13 04:06:18;;;;;;;13.87;9.77;;;11.20;99.90;;;;;;5071891;28;20708;-87
2023/05/13 04:08:53;;;;;;;11.50;8.00;;;11.60;99.90;;;;;;5071972;28;20199;-87
2023/05/13 04:11:20;;;;;;;11.53;8.00;;;12.10;99.90;;;;;;5066588;28;20606;-87
2023/05/13 04:13:48;;;;;;;9.53;6.93;;;11.40;99.90;;;;;;5062025;28;20630;-87
2023/05/13 04:16:16;;;;;;;12.37;7.53;;;11.20;99.90;;;;;;5073450;28;20715;-88
2023/05/13 04:18:46;;;;;;;10.93;7.10;;;10.90;99.90;;;;;;5070278;28;20230;-86
2023/05/13 04:21:13;;;;;;;11.47;7.90;;;10.80;99.90;;;;;;5071878;28;20574;-87
2023/05/13 04:23:40;;;;;;;9.60;7.80;;;10.80;99.90;;;;;;5070918;28;20236;-88
2023/05/13 04:26:07;;;;;;;10.23;7.57;;;11.00;99.90;;;;;;5066865;28;20242;-88
2023/05/13 04:28:35;;;;;;;11.73;7.77;;;11.10;99.90;;;;;;5062629;28;20218;-87
2023/05/13 04:31:03;;;;;;;11.10;7.60;;;11.40;99.90;;;;;;5068619;28;20225;-87
2023/05/13 04:33:35;;;;;;;11.40;7.53;;;11.00;99.90;;;;;;5067901;28;20217;-87
2023/05/13 04:36:01;;;;;;;14.33;7.87;;;11.00;99.90;;;;;;5068954;28;20206;-87
2023/05/13 04:38:30;;;;;;;12.30;7.50;;;11.00;99.90;;;;;;5069269;28;20287;-87
2023/05/13 04:40:57;;;;;;;12.30;7.80;;;10.90;99.90;;;;;;5067062;28;20218;-86
2023/05/13 04:43:23;;;;;;;10.00;7.70;;;11.20;99.90;;;;;;5057080;28;20214;-86
2023/05/13 04:45:50;;;;;;;9.63;7.53;;;11.70;99.90;;;;;;5065424;28;20301;-87
2023/05/13 04:48:19;;;;;;;9.67;7.50;;;11.80;99.90;;;;;;5067608;28;20282;-87
2023/05/13 04:50:46;;;;;;;10.07;7.20;;;11.60;99.90;;;;;;5068921;28;20214;-87
2023/05/13 04:53:13;;;;;;;9.87;7.30;;;11.40;99.90;;;;;;5073378;28;20206;-87
2023/05/13 04:55:40;;;;;;;10.40;7.57;;;11.40;99.90;;;;;;5085822;28;20198;-86
2023/05/13 04:58:07;;;;;;;11.03;7.40;;;12.10;99.90;;;;;;5079958;28;20218;-87
2023/05/13 05:00:34;;;;;;;9.73;6.80;;;12.20;99.90;;;;;;5081311;28;20253;-87
2023/05/13 05:03:01;;;;;;;11.33;7.53;;;12.20;99.90;;;;;;5079012;28;20198;-87
2023/05/13 05:05:29;;;;;;;7.87;6.60;;;12.40;99.90;;;;;;5070141;28;20209;-87
2023/05/13 05:07:56;;;;;;;11.63;6.77;;;13.00;99.90;;;;;;5064992;28;20194;-87
2023/05/13 05:10:22;;;;;;;7.97;6.87;;;12.60;99.90;;;;;;5071968;28;20780;-86
2023/05/13 05:12:50;;;;;;;7.07;6.37;;;12.50;99.90;;;;;;5076214;28;20505;-87
2023/05/13 05:15:17;;;;;;;9.67;6.67;;;12.60;99.90;;;;;;5072457;28;20217;-87
2023/05/13 05:17:44;;;;;;;9.17;6.77;;;12.70;99.90;;;;;;5067150;28;20215;-87
2023/05/13 05:20:13;;;;;;;11.77;7.13;;;12.50;99.90;;;;;;5089504;28;20774;-88
2023/05/13 05:25:25;;;;;;;11.23;7.30;;;12.60;99.90;;;;;;5073511;28;20225;-88
2023/05/13 05:27:52;;;;;;;11.00;6.70;;;12.60;99.90;;;;;;5075549;28;20630;-86
2023/05/13 05:30:18;;;;;;;10.27;6.90;;;12.60;99.90;;;;;;5075593;28;20218;-88
2023/05/13 05:32:45;;;;;;;10.37;7.07;;;12.60;99.90;;;;;;5075546;28;20589;-90
2023/05/13 05:35:14;;;;;;;10.07;7.27;;;12.70;99.90;;;;;;5074950;28;20198;-88
2023/05/13 05:37:42;;;;;;;10.00;6.70;;;12.80;99.90;;;;;;5074939;28;20226;-88
2023/05/13 05:40:10;;;;;;;9.63;6.90;;;12.80;99.90;;;;;;5074333;28;20226;-87
2023/05/13 05:42:37;;;;;;;9.80;6.93;;;12.80;99.90;;;;;;5074930;28;20198;-88
2023/05/13 05:45:05;;;;;;;10.07;7.60;;;12.90;99.90;;;;;;5075581;28;20206;-87
2023/05/13 05:47:32;;;;;;;7.57;6.43;;;13.00;99.90;;;;;;5075127;28;20204;-88
2023/05/13 05:49:58;;;;;;;8.77;7.33;;;13.10;99.90;;;;;;5074616;28;20213;-87
2023/05/13 05:52:25;;;;;;;9.63;7.13;;;13.20;99.90;;;;;;5076581;28;20210;-88
2023/05/13 05:54:54;;;;;;;9.07;6.87;;;13.20;99.90;;;;;;5075301;28;20297;-87
2023/05/13 05:57:20;;;;;;;8.77;7.17;;;13.30;99.90;;;;;;5075079;28;20214;-87
2023/05/13 05:59:47;;;;;;;13.00;7.37;;;13.40;99.90;;;;;;5074761;28;20232;-87
2023/05/13 06:02:14;;;;;;;8.93;7.37;;;14.20;99.90;;;;;;5074626;28;20293;-88
2023/05/13 06:04:41;;;;;;;118.90;16.87;;;14.00;99.90;;;;;;5082153;28;20660;-88
2023/05/13 06:07:08;;;;;;;9.53;7.10;;;15.00;99.90;;;;;;5066510;28;20285;-88
2023/05/13 06:09:35;;;;;;;9.77;7.13;;;14.30;99.90;;;;;;5075624;28;20567;-86
2023/05/13 06:12:03;;;;;;;9.93;6.93;;;14.10;99.90;;;;;;5083413;28;20228;-89
2023/05/13 06:14:32;;;;;;;10.60;7.32;;;14.40;99.90;;;;;;5075714;28;20572;-88
2023/05/13 06:17:02;;;;;;;13.30;7.43;;;13.90;99.90;;;;;;5074539;28;20206;-88
2023/05/13 06:19:29;;;;;;;9.77;7.53;;;13.70;99.90;;;;;;5075572;28;20222;-87
2023/05/13 06:21:55;;;;;;;12.40;7.93;;;13.80;99.90;;;;;;5074940;28;20716;-88
2023/05/13 06:24:22;;;;;;;9.13;7.70;;;13.70;99.90;;;;;;5075335;28;20206;-88
2023/05/13 06:26:49;;;;;;;11.53;7.80;;;13.70;99.90;;;;;;5075042;28;20324;-88
2023/05/13 06:29:17;;;;;;;9.63;8.10;;;13.60;99.90;;;;;;5074587;28;20209;-87
2023/05/13 06:31:44;;;;;;;10.27;7.13;;;13.70;99.90;;;;;;5074369;28;20233;-86
2023/05/13 06:34:15;;;;;;;12.50;7.63;;;13.60;99.90;;;;;;5074802;28;20218;-87
2023/05/13 06:36:42;;;;;;;11.63;8.03;;;13.80;99.90;;;;;;5065806;28;20202;-87
2023/05/13 06:39:10;;;;;;;9.70;7.43;;;13.90;99.90;;;;;;5079030;28;20594;-86
2023/05/13 06:41:37;;;;;;;9.33;7.37;;;14.00;99.90;;;;;;5085090;28;20641;-86
2023/05/13 06:44:07;;;;;;;9.67;7.00;;;14.10;99.90;;;;;;5090630;28;20202;-87
2023/05/13 06:46:35;;;;;;;9.13;7.93;;;14.50;99.90;;;;;;5074254;28;20198;-88
2023/05/13 06:49:02;;;;;;;10.07;8.20;;;14.10;99.90;;;;;;5074508;28;20677;-87
2023/05/13 06:51:29;;;;;;;11.53;8.10;;;14.20;99.90;;;;;;5072914;28;20229;-87
2023/05/13 06:53:56;;;;;;;13.57;8.50;;;14.20;99.90;;;;;;5074075;28;20209;-88
2023/05/13 06:56:26;;;;;;;10.50;7.87;;;14.20;99.90;;;;;;5073460;28;20205;-88
2023/05/13 06:58:53;;;;;;;14.17;8.33;;;14.50;99.90;;;;;;5073955;28;20230;-87
2023/05/13 07:01:20;;;;;;;11.60;7.90;;;14.40;99.90;;;;;;5073680;28;20218;-87
2023/05/13 07:03:48;;;;;;;10.90;7.73;;;14.40;99.90;;;;;;5073677;28;20198;-87
2023/05/13 07:06:15;;;;;;;10.70;8.37;;;14.40;99.90;;;;;;5073691;28;20305;-87
2023/05/13 07:08:42;;;;;;;10.73;8.27;;;14.60;99.90;;;;;;5073630;28;20748;-86
2023/05/13 07:11:09;;;;;;;11.33;8.30;;;14.50;99.90;;;;;;5072979;28;20603;-87
2023/05/13 07:13:35;;;;;;;12.47;8.30;;;14.50;99.90;;;;;;5073232;28;20198;-88
2023/05/13 07:16:03;;;;;;;12.20;8.20;;;14.60;99.90;;;;;;5065063;28;20209;-87
2023/05/13 07:18:29;;;;;;;11.50;8.70;;;14.60;99.90;;;;;;5089401;28;20222;-86
2023/05/13 07:20:57;;;;;;;13.50;8.27;;;14.60;99.90;;;;;;5081722;28;20693;-88
2023/05/13 07:23:24;;;;;;;13.73;8.03;;;14.70;99.90;;;;;;5076298;28;20216;-87
2023/05/13 07:25:52;;;;;;;11.77;8.50;;;14.70;99.90;;;;;;5079182;28;20730;-90
2023/05/13 07:28:19;;;;;;;12.07;8.73;;;14.90;99.90;;;;;;5074024;28;20197;-88
2023/05/13 07:30:46;;;;;;;11.77;8.90;;;14.90;99.90;;;;;;5074043;28;20709;-87
2023/05/13 07:33:14;;;;;;;10.90;8.50;;;14.90;99.90;;;;;;5085062;28;20205;-88
2023/05/13 07:35:41;;;;;;;11.10;8.07;;;14.90;99.90;;;;;;5073152;28;20285;-88
2023/05/13 07:38:10;;;;;;;12.50;9.00;;;15.00;99.90;;;;;;5072764;28;20226;-88
2023/05/13 07:40:38;;;;;;;10.60;8.07;;;15.10;99.90;;;;;;5072870;28;20436;-90
2023/05/13 07:43:04;;;;;;;11.27;7.70;;;15.00;99.90;;;;;;5073374;28;20214;-88
2023/05/13 07:45:31;;;;;;;12.33;8.80;;;15.20;99.90;;;;;;5073291;28;20225;-88
2023/05/13 07:47:58;;;;;;;11.25;8.50;;;15.20;99.90;;;;;;5093582;28;20191;-86
2023/05/13 07:50:27;;;;;;;11.70;8.37;;;15.10;99.90;;;;;;5096451;28;20206;-86
2023/05/13 07:52:54;;;;;;;13.45;9.05;;;15.30;99.90;;;;;;5096342;28;20228;-87
2023/05/13 07:55:22;;;;;;;11.05;8.35;;;15.30;99.90;;;;;;5078100;28;20208;-87
2023/05/13 07:57:49;;;;;;;10.70;8.82;;;15.50;99.90;;;;;;5073575;28;20210;-89
2023/05/13 08:00:16;;;;;;;10.77;9.57;;;15.50;99.90;;;;;;5072960;28;20696;-86
2023/05/13 08:02:44;;;;;;;15.07;9.60;;;15.60;99.90;;;;;;5074685;28;20217;-88
2023/05/13 08:05:11;;;;;;;13.25;9.57;;;15.70;99.90;;;;;;5075220;28;20289;-88
2023/05/13 08:07:45;;;;;;;13.88;9.10;;;15.70;99.90;;;;;;5073693;28;20206;-89
2023/05/13 08:10:12;;;;;;;12.82;9.35;;;15.90;99.90;;;;;;5073534;28;20723;-89
2023/05/13 08:12:40;;;;;;;12.57;9.05;;;15.80;99.90;;;;;;5074139;28;20216;-88
2023/05/13 08:15:08;;;;;;;11.80;8.98;;;15.90;99.90;;;;;;5073382;28;20239;-88
2023/05/13 08:17:35;;;;;;;10.80;8.93;;;16.00;99.90;;;;;;5073963;28;20209;-88
2023/05/13 08:20:02;;;;;;;12.02;8.98;;;16.00;99.90;;;;;;5073266;28;20218;-87
2023/05/13 08:22:29;;;;;;;12.70;9.43;;;16.00;99.90;;;;;;5073397;28;20626;-87
2023/05/13 08:24:56;;;;;;;12.07;9.38;;;16.00;99.90;;;;;;5073537;28;20198;-88
2023/05/13 08:27:22;;;;;;;13.77;9.55;;;16.10;99.90;;;;;;5073116;28;20676;-87
2023/05/13 08:29:51;;;;;;;10.43;8.18;;;16.20;99.90;;;;;;5076847;28;20194;-88
2023/05/13 08:32:17;;;;;;;12.30;7.68;;;16.30;99.90;;;;;;5076500;28;20199;-87
2023/05/13 08:34:44;;;;;;;12.48;7.90;;;16.20;99.90;;;;;;5076738;28;20203;-87
2023/05/13 08:37:11;;;;;;;11.15;8.45;;;16.20;99.90;;;;;;5076234;28;20249;-86
2023/05/13 08:39:38;;;;;;;11.30;8.55;;;16.40;99.90;;;;;;5076351;28;20244;-86
2023/05/13 08:42:08;;;;;;;11.82;9.45;;;16.50;99.90;;;;;;5075658;28;20218;-85
2023/05/13 08:44:39;;;;;;;11.50;8.95;;;16.70;99.90;;;;;;5076229;28;20551;-86
2023/05/13 08:47:14;;;;;;;15.95;9.05;;;16.70;99.90;;;;;;5076375;28;20202;-87
2023/05/13 08:49:41;;;;;;;10.55;7.95;;;16.90;99.90;;;;;;5075817;28;20664;-86
2023/05/13 08:52:08;;;;;;;12.30;9.20;;;16.90;99.90;;;;;;5075618;28;20214;-86
2023/05/13 08:54:36;;;;;;;13.20;9.27;;;17.30;99.90;;;;;;5076146;28;20198;-86
2023/05/13 08:57:03;;;;;;;10.40;8.95;;;17.70;99.90;;;;;;5075613;28;20198;-86
2023/05/13 08:59:30;;;;;;;14.27;8.88;;;17.80;99.90;;;;;;5075617;28;20218;-86
2023/05/13 09:02:02;;;;;;;10.48;8.50;;;18.00;99.90;;;;;;5074951;28;20214;-86
2023/05/13 09:04:30;;;;;;;10.15;8.32;;;18.20;99.90;;;;;;5075539;28;20206;-86
2023/05/13 09:06:58;;;;;;;13.40;8.63;;;18.30;99.90;;;;;;5075424;28;20676;-86
2023/05/13 09:09:28;;;;;;;12.88;8.38;;;18.40;99.90;;;;;;5075405;28;20713;-87
2023/05/13 09:11:55;;;;;;;9.88;8.57;;;18.50;99.90;;;;;;5075313;28;20257;-86
2023/05/13 09:14:21;;;;;;;10.30;8.23;;;18.90;99.90;;;;;;5075364;28;20569;-85
2023/05/13 09:16:51;;;;;;;13.02;8.60;;;18.80;99.90;;;;;;5074197;28;20285;-86
2023/05/13 09:19:20;;;;;;;12.45;8.95;;;18.80;99.90;;;;;;5075089;28;20301;-88
2023/05/13 09:21:48;;;;;;;9.55;8.50;;;18.90;99.90;;;;;;5068899;28;20218;-87
2023/05/13 09:24:17;;;;;;;10.30;8.43;;;19.30;99.90;;;;;;5087729;28;20224;-86
2023/05/13 09:26:45;;;;;;;13.05;9.20;;;19.20;99.90;;;;;;5087702;28;20255;-86
2023/05/13 09:29:16;;;;;;;11.82;8.68;;;19.60;99.90;;;;;;5092946;28;20272;-87
2023/05/13 09:31:56;;;;;;;11.90;9.05;;;19.60;99.90;;;;;;5067614;28;20635;-88
2023/05/13 09:34:28;;;;;;;11.00;8.07;;;19.40;99.90;;;;;;5076887;28;20289;-87
2023/05/13 09:37:01;;;;;;;10.00;7.95;;;19.90;99.90;;;;;;5084541;28;20622;-88
2023/05/13 09:39:29;;;;;;;9.85;7.28;;;20.00;99.90;;;;;;5091159;28;20222;-88
2023/05/13 09:41:56;;;;;;;10.48;7.57;;;20.00;1.00;;;;;;5074600;28;20230;-88
2023/05/13 09:44:23;;;;;;;12.18;8.23;;;20.00;99.90;;;;;;5075259;28;20236;-87
2023/05/13 09:46:52;;;;;;;9.48;7.55;;;19.80;99.90;;;;;;5075267;28;20590;-87
2023/05/13 09:49:21;;;;;;;9.20;7.10;;;20.10;99.90;;;;;;5075543;28;20214;-87
2023/05/13 09:52:01;;;;;;;9.85;7.43;;;20.50;99.90;;;;;;5073998;28;20238;-87
2023/05/13 09:54:34;;;;;;;10.02;7.68;;;20.30;1.00;;;;;;5074155;28;20205;-86
2023/05/13 09:57:04;;;;;;;8.63;6.80;;;20.30;1.00;;;;;;5074858;28;20202;-87
2023/05/13 09:59:34;;;;;;;9.88;7.80;;;20.50;1.00;;;;;;5074252;28;20218;-87
2023/05/13 10:02:02;;;;;;;9.88;7.25;;;20.30;99.90;;;;;;5074174;28;20222;-86
2023/05/13 10:04:29;;;;;;;9.02;6.72;;;20.50;1.00;;;;;;5074165;28;20234;-87
2023/05/13 10:07:02;;;;;;;8.52;6.72;;;20.60;99.90;;;;;;5074182;28;20214;-87
2023/05/13 10:09:35;;;;;;;8.95;7.05;;;20.60;1.00;;;;;;5062514;28;20202;-87
2023/05/13 10:12:03;;;;;;;9.55;6.50;;;20.70;1.00;;;;;;5074102;28;20222;-86
2023/05/13 10:14:30;;;;;;;8.13;6.05;;;21.00;1.00;;;;;;5072955;28;20571;-86
2023/05/13 10:17:04;;;;;;;7.70;6.00;;;20.70;1.00;;;;;;5070530;28;20195;-86
2023/05/13 10:19:31;;;;;;;9.02;6.22;;;20.80;99.90;;;;;;5063969;28;20305;-87
2023/05/13 10:22:02;;;;;;;9.73;5.90;;;20.60;1.00;;;;;;5069806;28;20712;-86
2023/05/13 10:24:31;;;;;;;8.77;6.03;;;21.40;99.90;;;;;;5069164;28;20216;-86
2023/05/13 10:26:58;;;;;;;6.38;5.78;;;21.30;99.90;;;;;;5074783;28;20224;-86
2023/05/13 10:29:28;;;;;;;10.38;5.80;;;21.10;1.00;;;;;;5073944;28;20293;-86
2023/05/13 10:31:55;;;;;;;6.55;5.95;;;21.30;1.00;;;;;;5073732;28;20301;-86
2023/05/13 10:34:26;;;;;;;8.38;6.03;;;20.90;1.00;;;;;;5073962;28;20206;-87
2023/05/13 10:37:07;;;;;;;8.55;5.88;;;20.60;1.00;;;;;;5072827;28;20229;-87
2023/05/13 10:40:03;;;;;;;9.73;5.90;;;20.70;1.00;;;;;;5073895;28;20232;-86
2023/05/13 10:42:39;;;;;;;9.70;5.47;;;21.20;99.90;;;;;;5064248;28;20301;-88
2023/05/13 10:45:08;;;;;;;9.18;5.35;;;21.30;99.90;;;;;;5072994;28;20561;-88
2023/05/13 10:47:35;;;;;;;7.40;4.93;;;21.20;1.00;;;;;;5071616;28;20285;-86
2023/05/13 10:50:06;;;;;;;10.05;5.00;;;21.40;1.00;;;;;;5070795;28;20198;-86
2023/05/13 10:52:47;;;;;;;7.80;5.20;;;21.80;1.00;;;;;;5070142;28;20200;-86
2023/05/13 10:55:20;;;;;;;7.65;4.70;;;22.00;1.80;;;;;;5070635;28;20217;-86
2023/05/13 10:58:13;;;;;;;6.97;4.63;;;21.30;99.90;;;;;;5067090;28;20681;-86
2023/05/13 11:00:41;;;;;;;6.47;4.63;;;21.30;99.90;;;;;;5069752;28;20245;-86
2023/05/13 11:03:16;;;;;;;6.25;5.00;;;21.30;99.90;;;;;;5070824;28;20194;-86
2023/05/13 11:05:46;;;;;;;10.57;5.05;;;21.60;99.90;;;;;;5073572;28;20189;-87
2023/05/13 11:08:32;;;;;;;5.25;4.72;;;21.50;99.90;;;;;;5061802;28;20194;-87
2023/05/13 11:11:00;;;;;;;6.60;5.50;;;21.90;99.90;;;;;;5067662;28;20232;-85
2023/05/13 11:13:37;;;;;;;7.05;5.25;;;21.70;1.00;;;;;;5071762;28;20644;-87
2023/05/13 11:16:10;;;;;;;8.85;5.60;;;21.50;29.30;;;;;;5071908;28;20597;-87
2023/05/13 11:18:45;;;;;;;7.93;5.63;;;21.70;1.00;;;;;;5072094;28;20217;-85
2023/05/13 11:21:12;;;;;;;5.85;5.05;;;22.10;1.00;;;;;;5071537;28;20260;-87
2023/05/13 11:23:57;;;;;;;7.88;5.50;;;22.10;1.00;;;;;;5071991;28;20241;-86
2023/05/13 11:26:41;;;;;;;7.75;4.70;;;21.80;1.00;;;;;;5073883;28;20275;-87
2023/05/13 11:29:08;;;;;;;6.57;5.03;;;21.90;1.00;;;;;;5078548;28;20204;-86
2023/05/13 11:31:46;;;;;;;10.00;4.90;;;21.60;99.90;;;;;;5062649;28;20250;-86
2023/05/13 11:34:14;;;;;;;6.72;4.45;;;22.00;99.90;;;;;;5070294;28;20193;-86
2023/05/13 11:36:44;;;;;;;5.10;4.38;;;21.90;99.90;;;;;;5083320;28;20631;-86
2023/05/13 11:39:20;;;;;;;7.75;5.00;;;21.90;99.90;;;;;;5078854;28;20210;-86
2023/05/13 11:41:56;;;;;;;8.77;5.40;;;21.50;1.00;;;;;;5070286;28;20574;-87
2023/05/13 11:44:24;;;;;;;5.72;5.07;;;21.40;1.00;;;;;;5071633;28;20809;-85
2023/05/13 11:47:01;;;;;;;6.45;4.95;;;21.60;1.00;;;;;;5071964;28;20287;-87
2023/05/13 11:49:37;;;;;;;5.28;4.70;;;21.70;1.00;;;;;;5071377;28;20292;-86
2023/05/13 11:52:05;;;;;;;8.77;5.00;;;21.50;70.30;;;;;;5051563;28;20229;-85
2023/05/13 11:54:39;;;;;;;6.43;4.70;;;21.40;1.00;;;;;;5059308;28;20237;-85
2023/05/13 11:57:14;;;;;;;5.47;4.57;;;21.60;1.00;;;;;;5071061;28;20233;-85
2023/05/13 11:59:41;;;;;;;7.90;5.18;;;21.50;95.50;;;;;;5071605;28;20241;-85
2023/05/13 12:02:08;;;;;;;5.38;4.20;;;21.60;1.00;;;;;;5070737;28;20702;-85
2023/05/13 12:04:35;;;;;;;6.13;4.43;;;21.40;99.90;;;;;;5088643;28;20250;-86
2023/05/13 12:07:03;;;;;;;5.45;4.30;;;22.00;1.00;;;;;;5095087;28;20213;-85
2023/05/13 12:09:30;;;;;;;6.88;4.63;;;21.90;1.00;;;;;;5093506;28;20202;-85
2023/05/13 12:11:57;;;;;;;6.45;4.32;;;22.20;1.00;;;;;;5068588;28;20229;-86
2023/05/13 12:14:26;;;;;;;7.03;4.35;;;23.00;99.90;;;;;;5072747;28;20203;-86
2023/05/13 12:16:53;;;;;;;4.80;4.35;;;22.90;99.90;;;;;;5061697;28;20246;-86
2023/05/13 12:19:20;;;;;;;5.95;4.25;;;22.80;1.00;;;;;;5070070;28;20670;-86
2023/05/13 12:21:52;;;;;;;4.00;3.58;;;22.60;99.90;;;;;;5062580;28;20313;-86
2023/05/13 12:24:22;;;;;;;5.25;4.35;;;22.60;56.60;;;;;;5072854;28;20617;-86
2023/05/13 12:26:49;;;;;;;4.80;4.30;;;22.60;99.90;;;;;;5070579;28;20206;-86
2023/05/13 12:29:16;;;;;;;5.97;4.35;;;21.90;99.90;;;;;;5071448;28;20316;-85
2023/05/13 12:32:06;;;;;;;8.30;4.75;;;21.30;1.00;;;;;;5071207;28;20218;-86
2023/05/13 12:34:34;;;;;;;7.53;4.60;;;20.90;1.00;;;;;;5070422;28;20288;-85
2023/05/13 12:37:13;;;;;;;5.55;4.47;;;21.10;99.90;;;;;;5053041;28;20207;-86
2023/05/13 12:39:40;;;;;;;7.20;4.20;;;21.70;1.00;;;;;;5065868;28;20681;-85
2023/05/13 12:42:21;;;;;;;9.63;4.88;;;21.90;1.00;;;;;;5078062;28;20230;-85
2023/05/13 12:44:48;;;;;;;4.72;4.30;;;22.30;99.90;;;;;;5071771;28;20320;-85
2023/05/13 12:47:23;;;;;;;3.80;3.50;;;22.30;1.00;;;;;;5066732;28;20236;-86
2023/05/13 12:49:54;;;;;;;6.63;4.00;;;22.50;1.00;;;;;;5071918;28;20198;-84
2023/05/13 12:52:21;;;;;;;6.10;4.25;;;21.70;1.00;;;;;;5071528;28;20203;-85
2023/05/13 12:54:48;;;;;;;4.10;3.70;;;21.40;1.00;;;;;;5071883;28;20210;-85